createdAt,value
2022-11-28T00:01:43.508Z,65.00
2022-11-28T00:04:12.686Z,65.60
2022-11-28T00:06:47.274Z,66.60
2022-11-28T00:09:17.227Z,66.50
2022-11-28T00:11:47.371Z,68.30
2022-11-28T00:14:17.259Z,65.30
2022-11-28T00:16:45.929Z,70.30
2022-11-28T00:19:14.151Z,72.00
2022-11-28T00:21:42.640Z,70.50
2022-11-28T00:24:10.727Z,74.60
2022-11-28T00:26:41.151Z,78.20
2022-11-28T00:29:10.385Z,72.40
2022-11-28T00:31:44.837Z,80.20
2022-11-28T00:34:15.235Z,82.50
2022-11-28T00:36:45.651Z,85.80
2022-11-28T00:39:15.133Z,86.00
2022-11-28T00:41:44.295Z,77.30
2022-11-28T00:44:13.565Z,80.40
2022-11-28T00:46:42.113Z,81.90
2022-11-28T00:49:10.063Z,83.40
2022-11-28T00:51:38.483Z,88.00
2022-11-28T00:54:07.721Z,86.60
2022-11-28T00:56:40.797Z,85.40
2022-11-28T00:59:09.515Z,81.50
2022-11-28T01:01:41.227Z,84.90
2022-11-28T01:04:13.123Z,83.50
2022-11-28T01:06:56.557Z,74.20
2022-11-28T01:09:25.768Z,76.50
2022-11-28T01:11:55.178Z,74.50
2022-11-28T01:14:25.864Z,73.40
2022-11-28T01:16:54.127Z,76.60
2022-11-28T01:19:24.738Z,74.50
2022-11-28T01:21:52.724Z,71.20
2022-11-28T01:24:20.689Z,73.60
2022-11-28T01:26:48.904Z,74.30
2022-11-28T01:29:16.861Z,73.30
2022-11-28T01:31:44.988Z,76.50
2022-11-28T01:34:12.947Z,72.60
2022-11-28T01:36:41.013Z,70.90
2022-11-28T01:39:09.584Z,62.50
2022-11-28T01:41:37.926Z,62.10
2022-11-28T01:44:29.616Z,71.50
2022-11-28T01:46:57.680Z,65.90
2022-11-28T01:49:37.790Z,74.40
2022-11-28T01:52:12.232Z,71.90
2022-11-28T01:54:42.669Z,66.90
2022-11-28T01:57:18.567Z,68.00
2022-11-28T01:59:57.764Z,69.70
2022-11-28T02:02:33.778Z,62.70
2022-11-28T02:05:02.752Z,63.10
2022-11-28T02:07:30.757Z,64.80
2022-11-28T02:10:01.004Z,64.70
2022-11-28T02:12:40.628Z,65.70
2022-11-28T02:15:08.799Z,67.30
2022-11-28T02:17:58.510Z,65.50
2022-11-28T02:21:00.410Z,63.20
2022-11-28T02:23:46.969Z,69.50
2022-11-28T02:26:23.731Z,63.80
2022-11-28T02:29:25.627Z,64.40
2022-11-28T02:32:20.634Z,62.10
2022-11-28T02:35:23.131Z,54.10
2022-11-28T02:37:59.958Z,51.70
2022-11-28T02:40:27.893Z,43.70
2022-11-28T02:42:55.822Z,43.10
2022-11-28T02:45:32.264Z,44.00
2022-11-28T02:48:11.152Z,43.90
2022-11-28T02:50:51.283Z,44.70
2022-11-28T02:53:23.645Z,45.30
2022-11-28T02:55:52.609Z,47.40
2022-11-28T02:58:20.836Z,42.20
2022-11-28T03:00:51.065Z,46.30
2022-11-28T03:03:21.976Z,47.70
2022-11-28T03:06:30.368Z,46.60
2022-11-28T03:09:35.957Z,44.60
2022-11-28T03:12:42.593Z,44.60
2022-11-28T03:15:14.659Z,47.90
2022-11-28T03:18:09.594Z,43.30
2022-11-28T03:20:47.088Z,45.70
2022-11-28T03:23:19.865Z,41.50
2022-11-28T03:26:07.324Z,43.50
2022-11-28T03:28:43.562Z,44.60
2022-11-28T03:31:20.007Z,45.80
2022-11-28T03:33:54.053Z,47.50
2022-11-28T03:36:43.298Z,43.00
2022-11-28T03:39:16.097Z,46.80
2022-11-28T03:42:12.962Z,40.70
2022-11-28T03:44:56.440Z,52.80
2022-11-28T03:47:30.935Z,40.60
2022-11-28T03:50:05.280Z,48.80
2022-11-28T03:52:40.835Z,45.10
2022-11-28T03:55:17.744Z,43.50
2022-11-28T03:57:56.141Z,44.80
2022-11-28T04:00:25.338Z,49.80
2022-11-28T04:03:24.326Z,47.60
2022-11-28T04:06:12.504Z,47.70
2022-11-28T04:08:48.852Z,54.80
2022-11-28T04:11:22.999Z,51.60
2022-11-28T04:13:58.587Z,49.70
2022-11-28T04:19:29.558Z,53.50
2022-11-28T04:22:01.430Z,55.60
2022-11-28T04:24:56.631Z,53.40
2022-11-28T04:27:32.283Z,54.60
2022-11-28T04:30:03.441Z,52.40
2022-11-28T04:32:35.635Z,54.20
2022-11-28T04:35:09.583Z,62.00
2022-11-28T04:37:40.097Z,59.90
2022-11-28T04:40:12.239Z,60.90
2022-11-28T04:42:56.462Z,55.00
2022-11-28T04:45:34.541Z,55.70
2022-11-28T04:48:03.261Z,54.70
2022-11-28T04:50:39.816Z,54.30
2022-11-28T04:53:20.903Z,55.60
2022-11-28T04:56:26.735Z,57.90
2022-11-28T04:58:54.717Z,59.70
2022-11-28T05:01:28.622Z,59.90
2022-11-28T05:03:58.092Z,65.40
2022-11-28T05:06:29.698Z,65.20
2022-11-28T05:08:58.111Z,65.60
2022-11-28T05:11:27.602Z,64.00
2022-11-28T05:13:56.362Z,58.70
2022-11-28T05:16:25.585Z,63.80
2022-11-28T05:18:53.836Z,80.10
2022-11-28T05:21:24.386Z,114.90
2022-11-28T05:23:53.321Z,113.10
2022-11-28T05:26:21.860Z,117.60
2022-11-28T05:28:51.599Z,134.00
2022-11-28T05:31:21.482Z,124.50
2022-11-28T05:33:49.872Z,117.80
2022-11-28T05:36:18.368Z,116.80
2022-11-28T05:38:46.915Z,115.20
2022-11-28T05:41:30.334Z,109.90
2022-11-28T05:44:00.144Z,104.70
2022-11-28T05:46:32.062Z,105.50
2022-11-28T05:49:00.357Z,103.70
2022-11-28T05:51:28.385Z,100.70
2022-11-28T05:53:56.658Z,98.90
2022-11-28T05:56:25.549Z,102.20
2022-11-28T05:58:54.543Z,100.30
2022-11-28T06:01:25.960Z,101.70
2022-11-28T06:04:01.106Z,108.30
2022-11-28T06:06:31.932Z,98.70
2022-11-28T06:09:01.108Z,92.10
2022-11-28T06:11:31.343Z,85.20
2022-11-28T06:14:00.875Z,78.30
2022-11-28T06:16:30.960Z,71.40
2022-11-28T06:19:01.919Z,72.00
2022-11-28T06:21:31.215Z,62.00
2022-11-28T06:24:00.224Z,59.00
2022-11-28T06:26:28.516Z,64.80
2022-11-28T06:28:57.091Z,59.30
2022-11-28T06:31:28.697Z,61.30
2022-11-28T06:33:58.828Z,59.80
2022-11-28T06:36:28.143Z,65.10
2022-11-28T06:38:58.495Z,63.20
2022-11-28T06:41:27.290Z,59.50
2022-11-28T06:43:56.900Z,60.90
2022-11-28T06:46:24.945Z,67.60
2022-11-28T06:48:53.770Z,64.40
2022-11-28T06:51:23.668Z,67.20
2022-11-28T06:53:51.879Z,72.50
2022-11-28T06:56:23.777Z,68.90
2022-11-28T06:58:58.044Z,84.20
2022-11-28T07:01:28.858Z,68.70
2022-11-28T07:03:57.247Z,88.30
2022-11-28T07:06:27.899Z,74.60
2022-11-28T07:09:01.524Z,73.60
2022-11-28T07:11:31.980Z,65.10
2022-11-28T07:14:02.345Z,75.60
2022-11-28T07:16:33.788Z,71.00
2022-11-28T07:19:02.721Z,65.70
2022-11-28T07:21:31.535Z,63.70
2022-11-28T07:24:00.787Z,64.30
2022-11-28T07:26:28.909Z,61.40
2022-11-28T07:28:59.902Z,57.20
2022-11-28T07:31:32.531Z,56.40
2022-11-28T07:34:05.269Z,63.30
2022-11-28T07:36:34.094Z,65.20
2022-11-28T07:39:05.468Z,60.70
2022-11-28T07:41:33.485Z,61.80
2022-11-28T07:44:03.683Z,64.90
2022-11-28T07:46:33.413Z,61.00
2022-11-28T07:49:04.066Z,61.50
2022-11-28T07:51:33.615Z,63.20
2022-11-28T07:54:03.582Z,56.30
2022-11-28T07:57:10.360Z,66.90
2022-11-28T07:59:25.382Z,58.60
2022-11-28T08:01:54.341Z,60.50
2022-11-28T08:04:23.173Z,60.00
2022-11-28T08:06:53.909Z,62.60
2022-11-28T08:09:22.024Z,65.10
2022-11-28T08:11:52.509Z,62.10
2022-11-28T08:14:20.689Z,54.50
2022-11-28T08:16:49.935Z,56.30
2022-11-28T08:19:22.973Z,63.40
2022-11-28T08:21:54.294Z,62.90
2022-11-28T08:24:23.504Z,62.40
2022-11-28T08:26:51.610Z,60.40
2022-11-28T08:29:20.182Z,61.30
2022-11-28T08:31:48.241Z,55.20
2022-11-28T08:34:16.537Z,64.40
2022-11-28T08:36:45.263Z,58.60
2022-11-28T08:39:28.553Z,60.10
2022-11-28T08:42:00.216Z,64.40
2022-11-28T08:44:30.939Z,62.20
2022-11-28T08:46:59.207Z,60.80
2022-11-28T08:49:27.843Z,59.50
2022-11-28T08:51:56.208Z,55.10
2022-11-28T08:54:24.442Z,61.50
2022-11-28T08:56:54.174Z,57.30
2022-11-28T08:59:22.430Z,60.70
2022-11-28T09:01:54.347Z,54.00
2022-11-28T09:04:23.965Z,53.80
2022-11-28T09:06:53.174Z,62.80
2022-11-28T09:09:22.246Z,62.60
2022-11-28T09:11:50.375Z,51.60
2022-11-28T09:14:19.547Z,51.60
2022-11-28T09:16:49.949Z,51.80
2022-11-28T09:19:19.478Z,45.20
2022-11-28T09:21:53.192Z,47.60
2022-11-28T09:24:24.685Z,39.90
2022-11-28T09:26:52.745Z,42.80
2022-11-28T09:29:21.304Z,35.80
2022-11-28T09:31:49.831Z,34.70
2022-11-28T09:34:18.115Z,32.40
2022-11-28T09:36:46.259Z,32.70
2022-11-28T09:39:14.472Z,34.20
2022-11-28T09:41:52.223Z,35.90
2022-11-28T09:44:39.149Z,34.80
2022-11-28T09:47:18.502Z,33.80
2022-11-28T09:49:53.046Z,29.70
2022-11-28T09:52:59.910Z,26.10
2022-11-28T09:55:45.468Z,23.40
2022-11-28T09:58:22.156Z,22.90
2022-11-28T10:01:15.865Z,38.90
2022-11-28T10:04:01.459Z,21.90
2022-11-28T10:06:44.920Z,22.90
2022-11-28T10:09:24.343Z,24.30
2022-11-28T10:12:01.344Z,19.40
2022-11-28T10:15:09.116Z,21.70
2022-11-28T10:18:24.668Z,21.30
2022-11-28T10:20:57.908Z,23.80
2022-11-28T10:23:44.456Z,25.30
2022-11-28T10:26:19.583Z,28.10
2022-11-28T10:28:54.735Z,28.80
2022-11-28T10:31:44.308Z,30.30
2022-11-28T10:34:33.088Z,38.10
2022-11-28T10:37:08.477Z,33.80
2022-11-28T10:39:42.512Z,27.80
2022-11-28T10:42:17.201Z,26.00
2022-11-28T10:45:27.229Z,31.60
2022-11-28T10:48:39.540Z,28.40
2022-11-28T10:51:55.932Z,27.20
2022-11-28T10:57:42.840Z,30.80
2022-11-28T11:00:21.123Z,30.50
2022-11-28T11:02:51.771Z,31.80
2022-11-28T11:05:27.059Z,27.90
2022-11-28T11:08:03.540Z,27.70
2022-11-28T11:10:44.741Z,26.20
2022-11-28T11:13:20.306Z,26.10
2022-11-28T11:15:56.387Z,23.10
2022-11-28T11:18:31.774Z,26.50
2022-11-28T11:21:14.504Z,27.10
2022-11-28T11:23:45.160Z,23.70
2022-11-28T11:26:25.320Z,28.00
2022-11-28T11:28:54.300Z,28.00
2022-11-28T11:31:28.186Z,28.50
2022-11-28T11:34:13.621Z,26.60
2022-11-28T11:36:42.175Z,25.60
2022-11-28T11:39:48.963Z,28.20
2022-11-28T11:42:33.273Z,24.90
2022-11-28T11:45:31.089Z,27.90
2022-11-28T11:48:00.125Z,25.00
2022-11-28T11:50:31.683Z,26.70
2022-11-28T11:53:10.404Z,27.10
2022-11-28T11:55:56.372Z,28.50
2022-11-28T11:58:44.122Z,42.40
2022-11-28T12:01:20.918Z,32.50
2022-11-28T12:04:08.476Z,39.50
2022-11-28T12:06:50.719Z,27.50
2022-11-28T12:09:44.516Z,31.50
2022-11-28T12:12:29.382Z,22.80
2022-11-28T12:14:59.117Z,25.20
2022-11-28T12:17:58.608Z,18.50
2022-11-28T12:21:03.980Z,18.30
2022-11-28T12:24:00.364Z,23.80
2022-11-28T12:26:50.678Z,18.50
2022-11-28T12:29:51.407Z,18.20
2022-11-28T12:32:34.223Z,17.40
2022-11-28T12:35:19.941Z,18.20
2022-11-28T12:41:17.384Z,24.50
2022-11-28T12:44:02.090Z,21.20
2022-11-28T12:46:47.855Z,23.40
2022-11-28T12:49:32.949Z,19.40
2022-11-28T12:52:27.721Z,28.00
2022-11-28T12:55:42.086Z,22.90
2022-11-28T12:58:16.813Z,23.70
2022-11-28T13:01:04.196Z,29.70
2022-11-28T13:04:00.060Z,29.40
2022-11-28T13:06:33.902Z,22.30
2022-11-28T13:09:19.128Z,19.30
2022-11-28T13:12:05.612Z,30.80
2022-11-28T13:14:38.829Z,22.00
2022-11-28T13:17:27.124Z,23.50
2022-11-28T13:20:22.651Z,19.00
2022-11-28T13:23:06.255Z,21.90
2022-11-28T13:26:09.129Z,25.30
2022-11-28T13:29:30.107Z,22.80
2022-11-28T13:32:07.584Z,23.90
2022-11-28T13:34:36.892Z,20.50
2022-11-28T13:40:34.119Z,25.30
2022-11-28T13:43:18.010Z,21.50
2022-11-28T13:45:47.906Z,24.70
2022-11-28T13:49:06.210Z,19.20
2022-11-28T13:54:34.844Z,19.50
2022-11-28T13:57:29.219Z,23.00
2022-11-28T14:00:20.893Z,25.00
2022-11-28T14:03:00.687Z,22.80
2022-11-28T14:05:32.242Z,20.60
2022-11-28T14:08:02.202Z,18.90
2022-11-28T14:10:33.522Z,19.60
2022-11-28T14:13:23.669Z,26.00
2022-11-28T14:16:17.901Z,19.70
2022-11-28T14:19:42.986Z,19.10
2022-11-28T14:22:26.189Z,22.20
2022-11-28T14:25:41.540Z,20.80
2022-11-28T14:28:33.423Z,19.40
2022-11-28T14:31:25.685Z,22.50
2022-11-28T14:34:02.567Z,17.90
2022-11-28T14:36:36.254Z,21.20
2022-11-28T14:39:16.547Z,20.30
2022-11-28T14:42:08.490Z,16.90
2022-11-28T14:45:04.957Z,20.80
2022-11-28T14:47:43.482Z,15.00
2022-11-28T14:50:13.466Z,19.30
2022-11-28T14:52:43.916Z,19.30
2022-11-28T14:55:25.827Z,16.90
2022-11-28T14:58:01.554Z,18.00
2022-11-28T15:00:51.470Z,16.50
2022-11-28T15:03:41.482Z,17.00
2022-11-28T15:06:15.433Z,18.90
2022-11-28T15:08:59.277Z,18.70
2022-11-28T15:11:47.299Z,17.70
2022-11-28T15:14:26.390Z,16.50
2022-11-28T15:17:02.869Z,18.50
2022-11-28T15:19:33.924Z,17.60
2022-11-28T15:22:02.644Z,23.70
2022-11-28T15:24:35.275Z,18.70
2022-11-28T15:27:12.306Z,20.50
2022-11-28T15:29:42.933Z,17.90
2022-11-28T15:32:15.245Z,18.70
2022-11-28T15:34:44.827Z,16.10
2022-11-28T15:37:20.695Z,23.00
2022-11-28T15:39:50.088Z,21.20
2022-11-28T15:42:30.809Z,16.60
2022-11-28T15:45:23.589Z,18.50
2022-11-28T15:47:52.915Z,17.30
2022-11-28T15:50:27.396Z,20.10
2022-11-28T15:53:02.303Z,20.70
2022-11-28T15:55:33.406Z,21.30
2022-11-28T15:58:19.894Z,18.10
2022-11-28T16:00:54.862Z,20.30
2022-11-28T16:03:26.549Z,21.60
2022-11-28T16:05:57.941Z,20.60
2022-11-28T16:08:38.525Z,20.90
2022-11-28T16:11:08.748Z,22.80
2022-11-28T16:13:40.564Z,15.80
2022-11-28T16:16:17.252Z,13.00
2022-11-28T16:18:50.903Z,15.80
2022-11-28T16:21:19.313Z,17.20
2022-11-28T16:23:49.312Z,14.80
2022-11-28T16:26:37.297Z,15.10
2022-11-28T16:29:05.435Z,15.80
2022-11-28T16:31:34.962Z,15.60
2022-11-28T16:34:03.644Z,16.90
2022-11-28T16:36:37.241Z,18.50
2022-11-28T16:39:11.442Z,17.90
2022-11-28T16:41:43.009Z,19.60
2022-11-28T16:44:15.880Z,16.00
2022-11-28T16:46:55.715Z,18.10
2022-11-28T16:49:43.501Z,17.50
2022-11-28T16:52:21.387Z,16.20
2022-11-28T16:54:51.087Z,16.60
2022-11-28T16:57:21.677Z,17.60
2022-11-28T16:59:54.058Z,19.80
2022-11-28T17:02:25.791Z,19.80
2022-11-28T17:04:54.893Z,19.50
2022-11-28T17:07:24.492Z,24.40
2022-11-28T17:09:52.857Z,23.00
2022-11-28T17:12:34.147Z,24.30
2022-11-28T17:15:02.169Z,19.40
2022-11-28T17:17:35.390Z,21.30
2022-11-28T17:20:04.609Z,24.40
2022-11-28T17:22:44.575Z,25.20
2022-11-28T17:25:20.415Z,23.00
2022-11-28T17:30:19.285Z,22.50
2022-11-28T17:32:48.141Z,26.60
2022-11-28T17:35:23.833Z,23.20
2022-11-28T17:37:54.508Z,25.20
2022-11-28T17:40:36.881Z,25.60
2022-11-28T17:43:07.966Z,29.60
2022-11-28T17:45:36.274Z,32.90
2022-11-28T17:48:07.451Z,29.00
2022-11-28T17:50:36.079Z,25.60
2022-11-28T17:53:04.385Z,24.70
2022-11-28T17:55:33.861Z,24.90
2022-11-28T17:58:03.457Z,29.40
2022-11-28T18:00:32.948Z,26.20
2022-11-28T18:03:02.548Z,26.10
2022-11-28T18:05:34.794Z,26.60
2022-11-28T18:08:02.921Z,29.60
2022-11-28T18:10:31.151Z,29.00
2022-11-28T18:13:00.358Z,26.50
2022-11-28T18:15:28.838Z,26.70
2022-11-28T18:17:59.065Z,27.90
2022-11-28T18:20:29.023Z,30.10
2022-11-28T18:23:00.863Z,32.20
2022-11-28T18:25:29.403Z,27.00
2022-11-28T18:27:57.875Z,32.60
2022-11-28T18:30:25.865Z,31.40
2022-11-28T18:32:54.229Z,30.20
2022-11-28T18:35:22.777Z,29.50
2022-11-28T18:37:51.688Z,30.20
2022-11-28T18:40:19.799Z,30.10
2022-11-28T18:42:48.095Z,29.40
2022-11-28T18:45:16.228Z,28.80
2022-11-28T18:47:44.686Z,31.30
2022-11-28T18:50:13.416Z,37.70
2022-11-28T18:52:42.896Z,31.80
2022-11-28T18:55:13.811Z,41.40
2022-11-28T18:57:44.707Z,44.00
2022-11-28T19:00:14.541Z,48.60
2022-11-28T19:02:44.988Z,59.20
2022-11-28T19:05:13.869Z,63.70
2022-11-28T19:07:43.040Z,57.60
2022-11-28T19:10:12.789Z,53.30
2022-11-28T19:12:41.548Z,47.90
2022-11-28T19:15:11.843Z,47.00
2022-11-28T19:17:41.085Z,44.70
2022-11-28T19:20:11.340Z,55.50
2022-11-28T19:22:39.571Z,52.90
2022-11-28T19:25:08.719Z,56.50
2022-11-28T19:27:36.863Z,56.50
2022-11-28T19:30:08.149Z,58.60
2022-11-28T19:32:38.560Z,54.40
2022-11-28T19:35:07.674Z,58.70
2022-11-28T19:37:35.662Z,52.10
2022-11-28T19:40:04.395Z,58.20
2022-11-28T19:42:32.777Z,61.30
2022-11-28T19:45:02.007Z,54.70
2022-11-28T19:47:32.784Z,58.90
2022-11-28T19:50:00.790Z,46.80
2022-11-28T19:52:31.046Z,45.00
2022-11-28T19:55:00.297Z,41.50
2022-11-28T19:57:29.255Z,35.70
2022-11-28T19:59:57.601Z,36.70
2022-11-28T20:02:25.702Z,39.90
2022-11-28T20:04:54.390Z,37.40
2022-11-28T20:07:22.934Z,38.10
2022-11-28T20:09:51.385Z,39.90
2022-11-28T20:12:19.486Z,45.10
2022-11-28T20:14:49.483Z,37.80
2022-11-28T20:17:17.751Z,42.90
2022-11-28T20:19:46.222Z,33.30
2022-11-28T20:22:14.764Z,31.00
2022-11-28T20:24:43.798Z,34.50
2022-11-28T20:27:12.391Z,36.50
2022-11-28T20:29:40.268Z,32.90
2022-11-28T20:32:10.024Z,32.30
2022-11-28T20:34:39.711Z,30.60
2022-11-28T20:37:07.689Z,34.00
2022-11-28T20:39:35.687Z,30.80
2022-11-28T20:42:04.871Z,33.50
2022-11-28T20:44:32.949Z,25.30
2022-11-28T20:47:01.261Z,35.80
2022-11-28T20:49:29.329Z,29.70
2022-11-28T20:51:57.255Z,28.20
2022-11-28T20:54:26.250Z,27.50
2022-11-28T20:59:43.431Z,31.40
2022-11-28T21:02:11.824Z,35.90
2022-11-28T21:04:40.992Z,32.10
2022-11-28T21:07:09.607Z,35.00
2022-11-28T21:09:37.631Z,30.10
2022-11-28T21:12:05.914Z,29.70
2022-11-28T21:14:35.277Z,30.90
2022-11-28T21:17:03.844Z,30.80
2022-11-28T21:19:32.374Z,30.40
2022-11-28T21:22:00.551Z,30.90
2022-11-28T21:24:28.705Z,41.90
2022-11-28T21:26:56.851Z,34.70
2022-11-28T21:29:24.936Z,33.00
2022-11-28T21:31:54.009Z,29.60
2022-11-28T21:34:23.014Z,34.70
2022-11-28T21:36:51.801Z,29.00
2022-11-28T21:39:22.054Z,39.00
2022-11-28T21:41:51.226Z,43.40
2022-11-28T21:44:20.011Z,41.00
2022-11-28T21:46:48.325Z,44.90
2022-11-28T21:49:17.228Z,45.80
2022-11-28T21:51:45.261Z,39.90
2022-11-28T21:54:13.507Z,46.60
2022-11-28T21:56:41.969Z,37.30
2022-11-28T21:59:10.130Z,43.50
2022-11-28T22:01:39.658Z,40.00
2022-11-28T22:04:07.971Z,39.50
2022-11-28T22:06:37.018Z,36.50
2022-11-28T22:09:09.485Z,36.80
2022-11-28T22:11:39.904Z,38.70
2022-11-28T22:14:08.832Z,34.70
2022-11-28T22:16:37.024Z,39.60
2022-11-28T22:19:06.000Z,34.40
2022-11-28T22:21:55.040Z,38.10
2022-11-28T22:24:24.518Z,35.80
2022-11-28T22:26:54.044Z,38.60
2022-11-28T22:29:25.157Z,34.10
2022-11-28T22:31:55.034Z,36.70
2022-11-28T22:34:24.436Z,37.50
2022-11-28T22:36:52.943Z,34.00
2022-11-28T22:39:22.197Z,37.80
2022-11-28T22:41:50.365Z,35.60
2022-11-28T22:44:19.172Z,34.90
2022-11-28T22:46:47.516Z,41.70
2022-11-28T22:49:15.815Z,35.10
2022-11-28T22:51:44.618Z,36.20
2022-11-28T22:54:15.051Z,34.30
2022-11-28T22:56:43.461Z,33.00
2022-11-28T22:59:15.047Z,38.50
2022-11-28T23:01:44.791Z,35.80
2022-11-28T23:04:13.606Z,35.10
2022-11-28T23:06:42.850Z,35.20
2022-11-28T23:09:13.553Z,36.80
2022-11-28T23:11:41.667Z,35.80
2022-11-28T23:14:13.304Z,34.90
2022-11-28T23:16:42.674Z,31.80
2022-11-28T23:19:13.949Z,33.40
2022-11-28T23:21:44.445Z,36.90
2022-11-28T23:24:21.331Z,36.40
2022-11-28T23:26:51.549Z,33.70
2022-11-28T23:29:20.725Z,36.60
2022-11-28T23:31:50.303Z,34.20
2022-11-28T23:34:18.456Z,35.80
2022-11-28T23:36:47.537Z,38.10
2022-11-28T23:39:18.324Z,37.10
2022-11-28T23:41:47.157Z,37.20
2022-11-28T23:44:17.093Z,39.50
2022-11-28T23:46:45.416Z,35.00
2022-11-28T23:49:13.787Z,35.10
2022-11-28T23:51:42.501Z,34.20
2022-11-28T23:54:12.116Z,34.60
2022-11-28T23:56:41.509Z,34.60
2022-11-28T23:59:11.932Z,39.40
